sensor_id;sensor_type;location;lat;lon;timestamp;P1;durP1;ratioP1;P2;durP2;ratioP2
19897;SDS011;10111;50.814;4.572;2022-08-24T00:01:59;3.10;;;1.97;;
19897;SDS011;10111;50.814;4.572;2022-08-24T00:04:25;3.10;;;2.43;;
19897;SDS011;10111;50.814;4.572;2022-08-24T00:06:51;3.13;;;2.50;;
19897;SDS011;10111;50.814;4.572;2022-08-24T00:09:17;3.07;;;2.77;;
19897;SDS011;10111;50.814;4.572;2022-08-24T00:11:43;2.80;;;2.47;;
19897;SDS011;10111;50.814;4.572;2022-08-24T00:14:09;5.53;;;2.80;;
19897;SDS011;10111;50.814;4.572;2022-08-24T00:16:35;2.47;;;2.27;;
19897;SDS011;10111;50.814;4.572;2022-08-24T00:19:02;4.13;;;2.83;;
19897;SDS011;10111;50.814;4.572;2022-08-24T00:21:28;5.07;;;2.80;;
19897;SDS011;10111;50.814;4.572;2022-08-24T00:23:54;3.67;;;2.50;;
19897;SDS011;10111;50.814;4.572;2022-08-24T00:26:20;4.43;;;2.93;;
19897;SDS011;10111;50.814;4.572;2022-08-24T00:28:46;3.97;;;3.13;;
19897;SDS011;10111;50.814;4.572;2022-08-24T00:31:12;3.57;;;2.70;;
19897;SDS011;10111;50.814;4.572;2022-08-24T00:33:38;3.17;;;2.57;;
19897;SDS011;10111;50.814;4.572;2022-08-24T00:36:04;4.30;;;2.93;;
19897;SDS011;10111;50.814;4.572;2022-08-24T00:38:30;4.03;;;2.60;;
19897;SDS011;10111;50.814;4.572;2022-08-24T00:40:56;2.73;;;2.40;;
19897;SDS011;10111;50.814;4.572;2022-08-24T00:43:22;3.90;;;2.50;;
19897;SDS011;10111;50.814;4.572;2022-08-24T00:48:23;5.97;;;2.83;;
19897;SDS011;10111;50.814;4.572;2022-08-24T00:50:55;2.73;;;2.47;;
19897;SDS011;10111;50.814;4.572;2022-08-24T00:53:26;5.07;;;2.47;;
19897;SDS011;10111;50.814;4.572;2022-08-24T00:55:57;5.13;;;2.87;;
19897;SDS011;10111;50.814;4.572;2022-08-24T00:58:33;3.53;;;2.37;;
19897;SDS011;10111;50.814;4.572;2022-08-24T01:01:09;3.87;;;3.33;;
19897;SDS011;10111;50.814;4.572;2022-08-24T01:03:36;2.80;;;2.40;;
19897;SDS011;10111;50.814;4.572;2022-08-24T01:06:02;3.50;;;3.20;;
19897;SDS011;10111;50.814;4.572;2022-08-24T01:08:28;3.17;;;2.53;;
19897;SDS011;10111;50.814;4.572;2022-08-24T01:10:57;3.63;;;2.87;;
19897;SDS011;10111;50.814;4.572;2022-08-24T01:13:29;2.93;;;2.70;;
19897;SDS011;10111;50.814;4.572;2022-08-24T01:15:58;4.67;;;2.73;;
19897;SDS011;10111;50.814;4.572;2022-08-24T01:18:29;3.50;;;2.67;;
19897;SDS011;10111;50.814;4.572;2022-08-24T01:21:15;3.17;;;2.07;;
19897;SDS011;10111;50.814;4.572;2022-08-24T01:23:44;3.07;;;2.67;;
19897;SDS011;10111;50.814;4.572;2022-08-24T01:26:17;2.80;;;2.50;;
19897;SDS011;10111;50.814;4.572;2022-08-24T01:29:06;5.57;;;2.37;;
19897;SDS011;10111;50.814;4.572;2022-08-24T01:31:54;5.73;;;3.00;;
19897;SDS011;10111;50.814;4.572;2022-08-24T01:34:23;4.63;;;2.87;;
19897;SDS011;10111;50.814;4.572;2022-08-24T01:36:52;4.27;;;2.83;;
19897;SDS011;10111;50.814;4.572;2022-08-24T01:39:25;3.27;;;2.70;;
19897;SDS011;10111;50.814;4.572;2022-08-24T01:41:57;3.43;;;2.43;;
19897;SDS011;10111;50.814;4.572;2022-08-24T01:44:24;4.37;;;3.33;;
19897;SDS011;10111;50.814;4.572;2022-08-24T01:46:51;4.97;;;2.53;;
19897;SDS011;10111;50.814;4.572;2022-08-24T01:49:18;4.73;;;2.93;;
19897;SDS011;10111;50.814;4.572;2022-08-24T01:51:46;3.17;;;2.80;;
19897;SDS011;10111;50.814;4.572;2022-08-24T01:54:12;3.93;;;2.90;;
19897;SDS011;10111;50.814;4.572;2022-08-24T01:56:38;3.63;;;2.50;;
19897;SDS011;10111;50.814;4.572;2022-08-24T01:59:04;3.10;;;2.60;;
19897;SDS011;10111;50.814;4.572;2022-08-24T02:01:33;2.97;;;2.40;;
19897;SDS011;10111;50.814;4.572;2022-08-24T02:04:02;4.43;;;3.33;;
19897;SDS011;10111;50.814;4.572;2022-08-24T02:06:29;3.77;;;3.47;;
19897;SDS011;10111;50.814;4.572;2022-08-24T02:08:55;3.60;;;2.93;;
19897;SDS011;10111;50.814;4.572;2022-08-24T02:11:21;3.70;;;2.77;;
19897;SDS011;10111;50.814;4.572;2022-08-24T02:13:47;2.97;;;2.67;;
19897;SDS011;10111;50.814;4.572;2022-08-24T02:16:12;3.33;;;2.63;;
19897;SDS011;10111;50.814;4.572;2022-08-24T02:18:39;3.80;;;2.57;;
19897;SDS011;10111;50.814;4.572;2022-08-24T02:21:05;2.70;;;2.33;;
19897;SDS011;10111;50.814;4.572;2022-08-24T02:23:33;3.20;;;2.87;;
19897;SDS011;10111;50.814;4.572;2022-08-24T02:26:00;2.93;;;2.50;;
19897;SDS011;10111;50.814;4.572;2022-08-24T02:28:27;3.40;;;2.50;;
19897;SDS011;10111;50.814;4.572;2022-08-24T02:30:53;2.20;;;2.00;;
19897;SDS011;10111;50.814;4.572;2022-08-24T02:33:19;2.27;;;2.00;;
19897;SDS011;10111;50.814;4.572;2022-08-24T02:35:47;2.80;;;2.53;;
19897;SDS011;10111;50.814;4.572;2022-08-24T02:38:14;2.90;;;2.50;;
19897;SDS011;10111;50.814;4.572;2022-08-24T02:40:40;3.33;;;2.13;;
19897;SDS011;10111;50.814;4.572;2022-08-24T02:43:05;3.23;;;2.80;;
19897;SDS011;10111;50.814;4.572;2022-08-24T02:45:31;8.17;;;2.50;;
19897;SDS011;10111;50.814;4.572;2022-08-24T02:48:01;3.67;;;2.23;;
19897;SDS011;10111;50.814;4.572;2022-08-24T02:50:27;5.50;;;2.77;;
19897;SDS011;10111;50.814;4.572;2022-08-24T02:52:53;2.17;;;2.00;;
19897;SDS011;10111;50.814;4.572;2022-08-24T02:55:19;4.77;;;2.57;;
19897;SDS011;10111;50.814;4.572;2022-08-24T02:57:44;3.27;;;2.50;;
19897;SDS011;10111;50.814;4.572;2022-08-24T03:00:12;4.00;;;2.43;;
19897;SDS011;10111;50.814;4.572;2022-08-24T03:02:39;2.73;;;2.47;;
19897;SDS011;10111;50.814;4.572;2022-08-24T03:05:05;2.87;;;2.67;;
19897;SDS011;10111;50.814;4.572;2022-08-24T03:07:32;2.83;;;2.30;;
19897;SDS011;10111;50.814;4.572;2022-08-24T03:09:58;3.67;;;2.63;;
19897;SDS011;10111;50.814;4.572;2022-08-24T03:12:23;2.13;;;1.93;;
19897;SDS011;10111;50.814;4.572;2022-08-24T03:14:49;4.93;;;2.37;;
19897;SDS011;10111;50.814;4.572;2022-08-24T03:17:14;4.40;;;2.90;;
19897;SDS011;10111;50.814;4.572;2022-08-24T03:19:40;2.80;;;2.23;;
19897;SDS011;10111;50.814;4.572;2022-08-24T03:22:06;3.63;;;1.97;;
19897;SDS011;10111;50.814;4.572;2022-08-24T03:24:32;4.83;;;3.53;;
19897;SDS011;10111;50.814;4.572;2022-08-24T03:26:59;4.10;;;2.57;;
19897;SDS011;10111;50.814;4.572;2022-08-24T03:29:25;2.57;;;2.23;;
19897;SDS011;10111;50.814;4.572;2022-08-24T03:31:51;4.43;;;1.90;;
19897;SDS011;10111;50.814;4.572;2022-08-24T03:34:17;3.33;;;2.53;;
19897;SDS011;10111;50.814;4.572;2022-08-24T03:36:45;2.60;;;2.20;;
19897;SDS011;10111;50.814;4.572;2022-08-24T03:39:11;2.60;;;2.40;;
19897;SDS011;10111;50.814;4.572;2022-08-24T03:41:37;3.77;;;2.40;;
19897;SDS011;10111;50.814;4.572;2022-08-24T03:44:03;4.23;;;3.20;;
19897;SDS011;10111;50.814;4.572;2022-08-24T03:46:29;5.60;;;2.63;;
19897;SDS011;10111;50.814;4.572;2022-08-24T03:49:00;3.27;;;2.73;;
19897;SDS011;10111;50.814;4.572;2022-08-24T03:51:28;3.73;;;2.30;;
19897;SDS011;10111;50.814;4.572;2022-08-24T03:53:54;2.50;;;2.30;;
19897;SDS011;10111;50.814;4.572;2022-08-24T03:56:22;3.33;;;2.87;;
19897;SDS011;10111;50.814;4.572;2022-08-24T03:58:48;2.50;;;2.20;;
19897;SDS011;10111;50.814;4.572;2022-08-24T04:01:14;2.73;;;2.30;;
19897;SDS011;10111;50.814;4.572;2022-08-24T04:03:43;5.40;;;2.40;;
19897;SDS011;10111;50.814;4.572;2022-08-24T04:06:10;4.07;;;2.30;;
19897;SDS011;10111;50.814;4.572;2022-08-24T04:08:37;3.57;;;2.33;;
19897;SDS011;10111;50.814;4.572;2022-08-24T04:11:04;2.47;;;2.27;;
19897;SDS011;10111;50.814;4.572;2022-08-24T04:13:30;2.63;;;2.43;;
19897;SDS011;10111;50.814;4.572;2022-08-24T04:15:56;2.70;;;2.40;;
19897;SDS011;10111;50.814;4.572;2022-08-24T04:18:27;2.83;;;2.57;;
19897;SDS011;10111;50.814;4.572;2022-08-24T04:20:53;3.83;;;2.23;;
19897;SDS011;10111;50.814;4.572;2022-08-24T04:23:18;3.63;;;2.50;;
19897;SDS011;10111;50.814;4.572;2022-08-24T04:25:45;6.90;;;2.30;;
19897;SDS011;10111;50.814;4.572;2022-08-24T04:28:13;4.83;;;2.30;;
19897;SDS011;10111;50.814;4.572;2022-08-24T04:30:40;2.97;;;2.30;;
19897;SDS011;10111;50.814;4.572;2022-08-24T04:33:08;2.57;;;2.37;;
19897;SDS011;10111;50.814;4.572;2022-08-24T04:35:36;3.03;;;2.80;;
19897;SDS011;10111;50.814;4.572;2022-08-24T04:38:03;2.63;;;2.37;;
19897;SDS011;10111;50.814;4.572;2022-08-24T04:40:28;3.13;;;2.33;;
19897;SDS011;10111;50.814;4.572;2022-08-24T04:42:54;6.10;;;2.83;;
19897;SDS011;10111;50.814;4.572;2022-08-24T04:45:21;2.97;;;2.60;;
19897;SDS011;10111;50.814;4.572;2022-08-24T04:47:47;4.10;;;3.60;;
19897;SDS011;10111;50.814;4.572;2022-08-24T04:50:12;2.33;;;2.13;;
19897;SDS011;10111;50.814;4.572;2022-08-24T04:52:38;5.00;;;2.10;;
19897;SDS011;10111;50.814;4.572;2022-08-24T04:55:04;3.33;;;2.33;;
19897;SDS011;10111;50.814;4.572;2022-08-24T04:57:31;7.07;;;2.40;;
19897;SDS011;10111;50.814;4.572;2022-08-24T04:59:57;6.00;;;2.60;;
19897;SDS011;10111;50.814;4.572;2022-08-24T05:02:24;5.80;;;2.37;;
19897;SDS011;10111;50.814;4.572;2022-08-24T05:04:50;7.87;;;2.70;;
19897;SDS011;10111;50.814;4.572;2022-08-24T05:07:16;3.60;;;2.67;;
19897;SDS011;10111;50.814;4.572;2022-08-24T05:09:42;3.47;;;3.00;;
19897;SDS011;10111;50.814;4.572;2022-08-24T05:12:08;2.70;;;2.43;;
19897;SDS011;10111;50.814;4.572;2022-08-24T05:14:35;2.67;;;2.40;;
19897;SDS011;10111;50.814;4.572;2022-08-24T05:17:01;3.20;;;2.87;;
19897;SDS011;10111;50.814;4.572;2022-08-24T05:19:27;3.93;;;2.90;;
19897;SDS011;10111;50.814;4.572;2022-08-24T05:21:52;4.80;;;2.83;;
19897;SDS011;10111;50.814;4.572;2022-08-24T05:24:18;10.70;;;3.30;;
19897;SDS011;10111;50.814;4.572;2022-08-24T05:26:45;5.63;;;2.77;;
19897;SDS011;10111;50.814;4.572;2022-08-24T05:29:10;5.33;;;3.30;;
19897;SDS011;10111;50.814;4.572;2022-08-24T05:31:36;4.80;;;3.50;;
19897;SDS011;10111;50.814;4.572;2022-08-24T05:34:02;10.27;;;3.20;;
19897;SDS011;10111;50.814;4.572;2022-08-24T05:36:32;7.47;;;3.33;;
19897;SDS011;10111;50.814;4.572;2022-08-24T05:39:03;7.07;;;3.37;;
19897;SDS011;10111;50.814;4.572;2022-08-24T05:41:31;5.47;;;3.47;;
19897;SDS011;10111;50.814;4.572;2022-08-24T05:43:58;7.10;;;3.40;;
19897;SDS011;10111;50.814;4.572;2022-08-24T05:46:25;3.43;;;3.13;;
19897;SDS011;10111;50.814;4.572;2022-08-24T05:48:51;5.70;;;3.50;;
19897;SDS011;10111;50.814;4.572;2022-08-24T05:51:17;4.30;;;3.10;;
19897;SDS011;10111;50.814;4.572;2022-08-24T05:53:43;3.93;;;3.33;;
19897;SDS011;10111;50.814;4.572;2022-08-24T05:56:10;4.10;;;3.70;;
19897;SDS011;10111;50.814;4.572;2022-08-24T05:58:38;6.67;;;4.57;;
19897;SDS011;10111;50.814;4.572;2022-08-24T06:01:07;5.07;;;3.50;;
19897;SDS011;10111;50.814;4.572;2022-08-24T06:03:38;6.37;;;3.80;;
19897;SDS011;10111;50.814;4.572;2022-08-24T06:06:05;8.47;;;5.40;;
19897;SDS011;10111;50.814;4.572;2022-08-24T06:08:35;6.33;;;5.20;;
19897;SDS011;10111;50.814;4.572;2022-08-24T06:11:02;8.27;;;5.50;;
19897;SDS011;10111;50.814;4.572;2022-08-24T06:13:28;15.57;;;6.30;;
19897;SDS011;10111;50.814;4.572;2022-08-24T06:16:04;16.20;;;9.07;;
19897;SDS011;10111;50.814;4.572;2022-08-24T06:18:32;12.50;;;7.83;;
19897;SDS011;10111;50.814;4.572;2022-08-24T06:21:02;11.10;;;7.80;;
19897;SDS011;10111;50.814;4.572;2022-08-24T06:23:33;11.57;;;6.90;;
19897;SDS011;10111;50.814;4.572;2022-08-24T06:25:59;11.67;;;7.77;;
19897;SDS011;10111;50.814;4.572;2022-08-24T06:28:44;16.33;;;10.43;;
19897;SDS011;10111;50.814;4.572;2022-08-24T06:31:10;16.37;;;10.73;;
19897;SDS011;10111;50.814;4.572;2022-08-24T06:33:36;20.90;;;11.43;;
19897;SDS011;10111;50.814;4.572;2022-08-24T06:36:01;19.97;;;12.07;;
19897;SDS011;10111;50.814;4.572;2022-08-24T06:38:27;14.77;;;11.77;;
19897;SDS011;10111;50.814;4.572;2022-08-24T06:40:54;20.37;;;14.73;;
19897;SDS011;10111;50.814;4.572;2022-08-24T06:43:20;20.70;;;14.37;;
19897;SDS011;10111;50.814;4.572;2022-08-24T06:45:48;22.50;;;14.73;;
19897;SDS011;10111;50.814;4.572;2022-08-24T06:48:13;27.07;;;16.77;;
19897;SDS011;10111;50.814;4.572;2022-08-24T06:50:39;25.37;;;17.63;;
19897;SDS011;10111;50.814;4.572;2022-08-24T06:53:05;29.37;;;19.73;;
19897;SDS011;10111;50.814;4.572;2022-08-24T06:55:30;27.30;;;19.13;;
19897;SDS011;10111;50.814;4.572;2022-08-24T06:57:56;24.07;;;16.73;;
19897;SDS011;10111;50.814;4.572;2022-08-24T07:00:22;33.23;;;19.83;;
19897;SDS011;10111;50.814;4.572;2022-08-24T07:02:49;30.03;;;17.80;;
19897;SDS011;10111;50.814;4.572;2022-08-24T07:05:15;28.80;;;20.13;;
19897;SDS011;10111;50.814;4.572;2022-08-24T07:07:41;27.57;;;19.33;;
19897;SDS011;10111;50.814;4.572;2022-08-24T07:10:06;24.43;;;18.10;;
19897;SDS011;10111;50.814;4.572;2022-08-24T07:12:33;34.17;;;20.57;;
19897;SDS011;10111;50.814;4.572;2022-08-24T07:15:00;25.57;;;18.80;;
19897;SDS011;10111;50.814;4.572;2022-08-24T07:17:27;29.73;;;20.77;;
19897;SDS011;10111;50.814;4.572;2022-08-24T07:19:52;34.47;;;21.93;;
19897;SDS011;10111;50.814;4.572;2022-08-24T07:22:18;28.70;;;20.17;;
19897;SDS011;10111;50.814;4.572;2022-08-24T07:24:44;24.07;;;17.77;;
19897;SDS011;10111;50.814;4.572;2022-08-24T07:27:10;23.90;;;17.43;;
19897;SDS011;10111;50.814;4.572;2022-08-24T07:29:37;32.80;;;21.73;;
19897;SDS011;10111;50.814;4.572;2022-08-24T07:32:04;29.37;;;19.83;;
19897;SDS011;10111;50.814;4.572;2022-08-24T07:34:29;28.37;;;19.40;;
19897;SDS011;10111;50.814;4.572;2022-08-24T07:36:56;30.60;;;20.23;;
19897;SDS011;10111;50.814;4.572;2022-08-24T07:39:24;25.30;;;18.23;;
19897;SDS011;10111;50.814;4.572;2022-08-24T07:41:50;26.53;;;19.60;;
19897;SDS011;10111;50.814;4.572;2022-08-24T07:44:16;24.93;;;17.57;;
19897;SDS011;10111;50.814;4.572;2022-08-24T07:46:42;28.23;;;19.20;;
19897;SDS011;10111;50.814;4.572;2022-08-24T07:49:08;24.27;;;18.77;;
19897;SDS011;10111;50.814;4.572;2022-08-24T07:51:35;26.20;;;19.50;;
19897;SDS011;10111;50.814;4.572;2022-08-24T07:54:01;28.93;;;18.87;;
19897;SDS011;10111;50.814;4.572;2022-08-24T07:56:28;22.77;;;18.27;;
19897;SDS011;10111;50.814;4.572;2022-08-24T07:58:54;25.67;;;17.60;;
19897;SDS011;10111;50.814;4.572;2022-08-24T08:01:19;24.70;;;17.47;;
19897;SDS011;10111;50.814;4.572;2022-08-24T08:03:46;26.13;;;18.33;;
19897;SDS011;10111;50.814;4.572;2022-08-24T08:06:12;21.37;;;16.00;;
19897;SDS011;10111;50.814;4.572;2022-08-24T08:08:38;22.10;;;15.43;;
19897;SDS011;10111;50.814;4.572;2022-08-24T08:11:05;23.20;;;16.63;;
19897;SDS011;10111;50.814;4.572;2022-08-24T08:13:32;21.20;;;15.93;;
19897;SDS011;10111;50.814;4.572;2022-08-24T08:15:59;24.07;;;17.60;;
19897;SDS011;10111;50.814;4.572;2022-08-24T08:18:25;23.37;;;15.47;;
19897;SDS011;10111;50.814;4.572;2022-08-24T08:20:52;22.40;;;16.93;;
19897;SDS011;10111;50.814;4.572;2022-08-24T08:23:18;21.17;;;17.77;;
19897;SDS011;10111;50.814;4.572;2022-08-24T08:26:03;24.50;;;18.43;;
19897;SDS011;10111;50.814;4.572;2022-08-24T08:28:30;24.47;;;18.03;;
19897;SDS011;10111;50.814;4.572;2022-08-24T08:30:59;24.27;;;17.47;;
19897;SDS011;10111;50.814;4.572;2022-08-24T08:33:27;21.43;;;16.57;;
19897;SDS011;10111;50.814;4.572;2022-08-24T08:38:35;23.37;;;17.23;;
19897;SDS011;10111;50.814;4.572;2022-08-24T08:54:30;16.60;;;14.37;;
19897;SDS011;10111;50.814;4.572;2022-08-24T09:00:05;18.20;;;13.80;;
19897;SDS011;10111;50.814;4.572;2022-08-24T09:02:50;17.93;;;13.43;;
19897;SDS011;10111;50.814;4.572;2022-08-24T09:08:23;15.47;;;11.77;;
19897;SDS011;10111;50.814;4.572;2022-08-24T09:16:26;13.50;;;10.97;;
19897;SDS011;10111;50.814;4.572;2022-08-24T09:19:26;14.17;;;10.47;;
19897;SDS011;10111;50.814;4.572;2022-08-24T09:22:09;13.20;;;9.00;;
19897;SDS011;10111;50.814;4.572;2022-08-24T09:27:34;14.17;;;8.93;;
19897;SDS011;10111;50.814;4.572;2022-08-24T09:30:24;9.07;;;7.90;;
19897;SDS011;10111;50.814;4.572;2022-08-24T09:57:51;3.50;;;3.20;;
19897;SDS011;10111;50.814;4.572;2022-08-24T10:00:45;6.03;;;3.43;;
19897;SDS011;10111;50.814;4.572;2022-08-24T10:03:20;3.43;;;3.13;;
19897;SDS011;10111;50.814;4.572;2022-08-24T10:08:53;6.33;;;3.17;;
19897;SDS011;10111;50.814;4.572;2022-08-24T10:11:53;3.47;;;2.80;;
19897;SDS011;10111;50.814;4.572;2022-08-24T10:27:07;3.67;;;2.30;;
19897;SDS011;10111;50.814;4.572;2022-08-24T10:35:31;3.03;;;1.80;;
19897;SDS011;10111;50.814;4.572;2022-08-24T10:46:58;1.57;;;1.47;;
19897;SDS011;10111;50.814;4.572;2022-08-24T10:58:05;1.20;;;1.10;;
19897;SDS011;10111;50.814;4.572;2022-08-24T11:00:34;8.60;;;1.73;;
19897;SDS011;10111;50.814;4.572;2022-08-24T11:03:08;2.03;;;1.60;;
19897;SDS011;10111;50.814;4.572;2022-08-24T11:05:44;4.03;;;2.13;;
19897;SDS011;10111;50.814;4.572;2022-08-24T11:08:26;4.97;;;1.63;;
19897;SDS011;10111;50.814;4.572;2022-08-24T11:11:10;3.07;;;1.30;;
19897;SDS011;10111;50.814;4.572;2022-08-24T11:13:48;1.90;;;1.60;;
19897;SDS011;10111;50.814;4.572;2022-08-24T11:16:23;2.53;;;1.50;;
19897;SDS011;10111;50.814;4.572;2022-08-24T11:18:58;1.63;;;1.40;;
19897;SDS011;10111;50.814;4.572;2022-08-24T11:21:33;1.53;;;1.20;;
19897;SDS011;10111;50.814;4.572;2022-08-24T11:29:16;1.50;;;1.40;;
19897;SDS011;10111;50.814;4.572;2022-08-24T11:31:42;4.27;;;1.47;;
19897;SDS011;10111;50.814;4.572;2022-08-24T11:34:31;2.97;;;1.40;;
19897;SDS011;10111;50.814;4.572;2022-08-24T11:36:59;2.03;;;1.27;;
19897;SDS011;10111;50.814;4.572;2022-08-24T11:39:34;2.20;;;1.20;;
19897;SDS011;10111;50.814;4.572;2022-08-24T11:42:30;3.93;;;1.60;;
19897;SDS011;10111;50.814;4.572;2022-08-24T12:01:45;1.43;;;1.33;;
19897;SDS011;10111;50.814;4.572;2022-08-24T12:15:42;2.75;;;1.90;;
19897;SDS011;10111;50.814;4.572;2022-08-24T12:21:40;2.40;;;1.30;;
19897;SDS011;10111;50.814;4.572;2022-08-24T12:27:08;3.90;;;1.80;;
19897;SDS011;10111;50.814;4.572;2022-08-24T12:29:41;1.42;;;1.33;;
19897;SDS011;10111;50.814;4.572;2022-08-24T12:32:16;2.13;;;1.90;;
19897;SDS011;10111;50.814;4.572;2022-08-24T12:37:26;3.92;;;2.50;;
19897;SDS011;10111;50.814;4.572;2022-08-24T12:45:14;2.42;;;1.77;;
19897;SDS011;10111;50.814;4.572;2022-08-24T12:47:47;1.85;;;1.70;;
19897;SDS011;10111;50.814;4.572;2022-08-24T12:58:30;1.65;;;1.55;;
19897;SDS011;10111;50.814;4.572;2022-08-24T13:01:19;2.40;;;2.20;;
19897;SDS011;10111;50.814;4.572;2022-08-24T13:03:48;1.52;;;1.42;;
19897;SDS011;10111;50.814;4.572;2022-08-24T13:06:48;4.13;;;2.85;;
19897;SDS011;10111;50.814;4.572;2022-08-24T13:09:32;1.63;;;1.50;;
19897;SDS011;10111;50.814;4.572;2022-08-24T13:11:59;2.50;;;1.50;;
19897;SDS011;10111;50.814;4.572;2022-08-24T13:15:19;2.63;;;1.50;;
19897;SDS011;10111;50.814;4.572;2022-08-24T13:17:44;1.95;;;1.83;;
19897;SDS011;10111;50.814;4.572;2022-08-24T13:20:22;2.60;;;1.67;;
19897;SDS011;10111;50.814;4.572;2022-08-24T13:42:22;5.47;;;2.80;;
19897;SDS011;10111;50.814;4.572;2022-08-24T13:44:56;1.90;;;1.80;;
19897;SDS011;10111;50.814;4.572;2022-08-24T13:47:32;2.90;;;1.80;;
19897;SDS011;10111;50.814;4.572;2022-08-24T13:53:03;1.77;;;1.67;;
19897;SDS011;10111;50.814;4.572;2022-08-24T13:55:49;3.72;;;2.08;;
19897;SDS011;10111;50.814;4.572;2022-08-24T14:20:29;2.38;;;1.73;;
19897;SDS011;10111;50.814;4.572;2022-08-24T14:42:12;2.75;;;2.05;;
19897;SDS011;10111;50.814;4.572;2022-08-24T14:45:00;3.58;;;1.95;;
19897;SDS011;10111;50.814;4.572;2022-08-24T14:53:29;2.55;;;1.65;;
19897;SDS011;10111;50.814;4.572;2022-08-24T14:56:13;2.22;;;1.67;;
19897;SDS011;10111;50.814;4.572;2022-08-24T14:59:06;2.45;;;1.73;;
19897;SDS011;10111;50.814;4.572;2022-08-24T15:01:38;3.80;;;1.83;;
19897;SDS011;10111;50.814;4.572;2022-08-24T15:09:46;2.58;;;1.90;;
19897;SDS011;10111;50.814;4.572;2022-08-24T15:12:16;2.10;;;1.67;;
19897;SDS011;10111;50.814;4.572;2022-08-24T15:14:50;1.73;;;1.63;;
19897;SDS011;10111;50.814;4.572;2022-08-24T15:17:22;2.75;;;1.98;;
19897;SDS011;10111;50.814;4.572;2022-08-24T15:20:02;3.72;;;1.48;;
19897;SDS011;10111;50.814;4.572;2022-08-24T15:22:48;5.65;;;1.80;;
19897;SDS011;10111;50.814;4.572;2022-08-24T15:28:12;3.17;;;1.77;;
19897;SDS011;10111;50.814;4.572;2022-08-24T15:33:56;4.90;;;2.15;;
19897;SDS011;10111;50.814;4.572;2022-08-24T15:36:25;2.50;;;2.13;;
19897;SDS011;10111;50.814;4.572;2022-08-24T15:38:52;2.63;;;1.98;;
19897;SDS011;10111;50.814;4.572;2022-08-24T15:41:29;2.92;;;1.50;;
19897;SDS011;10111;50.814;4.572;2022-08-24T15:43:58;2.25;;;1.65;;
19897;SDS011;10111;50.814;4.572;2022-08-24T15:46:42;2.45;;;2.25;;
19897;SDS011;10111;50.814;4.572;2022-08-24T15:49:32;2.63;;;1.70;;
19897;SDS011;10111;50.814;4.572;2022-08-24T15:52:05;2.10;;;1.90;;
19897;SDS011;10111;50.814;4.572;2022-08-24T15:54:40;2.47;;;2.03;;
19897;SDS011;10111;50.814;4.572;2022-08-24T15:59:52;3.10;;;2.08;;
19897;SDS011;10111;50.814;4.572;2022-08-24T16:02:23;3.22;;;2.03;;
19897;SDS011;10111;50.814;4.572;2022-08-24T16:07:23;2.80;;;1.60;;
19897;SDS011;10111;50.814;4.572;2022-08-24T16:10:56;3.50;;;2.00;;
19897;SDS011;10111;50.814;4.572;2022-08-24T16:12:53;3.13;;;1.65;;
19897;SDS011;10111;50.814;4.572;2022-08-24T16:16:05;5.60;;;1.95;;
19897;SDS011;10111;50.814;4.572;2022-08-24T16:18:44;1.90;;;1.70;;
19897;SDS011;10111;50.814;4.572;2022-08-24T16:21:18;2.00;;;1.60;;
19897;SDS011;10111;50.814;4.572;2022-08-24T16:23:52;4.05;;;1.90;;
19897;SDS011;10111;50.814;4.572;2022-08-24T16:26:25;2.65;;;1.70;;
19897;SDS011;10111;50.814;4.572;2022-08-24T16:32:07;1.55;;;1.45;;
19897;SDS011;10111;50.814;4.572;2022-08-24T16:34:34;1.98;;;1.77;;
19897;SDS011;10111;50.814;4.572;2022-08-24T16:37:00;2.55;;;1.70;;
19897;SDS011;10111;50.814;4.572;2022-08-24T16:39:28;1.83;;;1.40;;
19897;SDS011;10111;50.814;4.572;2022-08-24T16:41:55;2.28;;;1.58;;
19897;SDS011;10111;50.814;4.572;2022-08-24T16:44:23;2.10;;;1.77;;
19897;SDS011;10111;50.814;4.572;2022-08-24T16:46:52;5.57;;;2.22;;
19897;SDS011;10111;50.814;4.572;2022-08-24T16:49:17;4.05;;;1.75;;
19897;SDS011;10111;50.814;4.572;2022-08-24T16:51:43;1.83;;;1.45;;
19897;SDS011;10111;50.814;4.572;2022-08-24T16:54:09;3.17;;;1.73;;
19897;SDS011;10111;50.814;4.572;2022-08-24T16:56:34;1.73;;;1.63;;
19897;SDS011;10111;50.814;4.572;2022-08-24T16:59:00;5.72;;;1.50;;
19897;SDS011;10111;50.814;4.572;2022-08-24T17:01:26;2.63;;;1.60;;
19897;SDS011;10111;50.814;4.572;2022-08-24T17:03:51;5.90;;;1.77;;
19897;SDS011;10111;50.814;4.572;2022-08-24T17:06:17;2.35;;;2.10;;
19897;SDS011;10111;50.814;4.572;2022-08-24T17:08:44;3.58;;;2.05;;
19897;SDS011;10111;50.814;4.572;2022-08-24T17:11:11;1.95;;;1.65;;
19897;SDS011;10111;50.814;4.572;2022-08-24T17:13:37;1.42;;;1.30;;
19897;SDS011;10111;50.814;4.572;2022-08-24T17:16:03;1.77;;;1.65;;
19897;SDS011;10111;50.814;4.572;2022-08-24T17:18:29;1.50;;;1.33;;
19897;SDS011;10111;50.814;4.572;2022-08-24T17:20:54;2.97;;;1.50;;
19897;SDS011;10111;50.814;4.572;2022-08-24T17:23:20;1.73;;;1.63;;
19897;SDS011;10111;50.814;4.572;2022-08-24T17:25:46;2.13;;;1.85;;
19897;SDS011;10111;50.814;4.572;2022-08-24T17:28:12;1.92;;;1.45;;
19897;SDS011;10111;50.814;4.572;2022-08-24T17:30:42;2.13;;;1.67;;
19897;SDS011;10111;50.814;4.572;2022-08-24T17:33:09;1.60;;;1.50;;
19897;SDS011;10111;50.814;4.572;2022-08-24T17:35:38;4.18;;;1.83;;
19897;SDS011;10111;50.814;4.572;2022-08-24T17:38:04;1.63;;;1.52;;
19897;SDS011;10111;50.814;4.572;2022-08-24T17:40:31;1.75;;;1.35;;
19897;SDS011;10111;50.814;4.572;2022-08-24T17:42:58;3.42;;;2.10;;
19897;SDS011;10111;50.814;4.572;2022-08-24T17:45:23;5.03;;;2.53;;
19897;SDS011;10111;50.814;4.572;2022-08-24T17:47:50;5.05;;;1.65;;
19897;SDS011;10111;50.814;4.572;2022-08-24T17:50:17;2.35;;;1.50;;
19897;SDS011;10111;50.814;4.572;2022-08-24T17:52:43;1.83;;;1.50;;
19897;SDS011;10111;50.814;4.572;2022-08-24T17:55:10;1.45;;;1.30;;
19897;SDS011;10111;50.814;4.572;2022-08-24T17:57:37;2.97;;;1.85;;
19897;SDS011;10111;50.814;4.572;2022-08-24T18:00:04;1.65;;;1.40;;
19897;SDS011;10111;50.814;4.572;2022-08-24T18:02:32;4.35;;;1.48;;
19897;SDS011;10111;50.814;4.572;2022-08-24T18:04:58;1.98;;;1.30;;
19897;SDS011;10111;50.814;4.572;2022-08-24T18:07:25;2.95;;;1.95;;
19897;SDS011;10111;50.814;4.572;2022-08-24T18:09:53;4.43;;;2.45;;
19897;SDS011;10111;50.814;4.572;2022-08-24T18:12:22;1.52;;;1.42;;
19897;SDS011;10111;50.814;4.572;2022-08-24T18:14:49;2.95;;;1.60;;
19897;SDS011;10111;50.814;4.572;2022-08-24T18:17:17;3.60;;;1.83;;
19897;SDS011;10111;50.814;4.572;2022-08-24T18:19:45;5.00;;;2.42;;
19897;SDS011;10111;50.814;4.572;2022-08-24T18:22:13;4.05;;;2.28;;
19897;SDS011;10111;50.814;4.572;2022-08-24T18:24:39;1.80;;;1.70;;
19897;SDS011;10111;50.814;4.572;2022-08-24T18:27:07;2.90;;;1.75;;
19897;SDS011;10111;50.814;4.572;2022-08-24T18:29:37;3.95;;;2.00;;
19897;SDS011;10111;50.814;4.572;2022-08-24T18:32:04;2.75;;;1.92;;
19897;SDS011;10111;50.814;4.572;2022-08-24T18:34:30;3.78;;;1.90;;
19897;SDS011;10111;50.814;4.572;2022-08-24T18:36:56;2.28;;;2.05;;
19897;SDS011;10111;50.814;4.572;2022-08-24T18:39:22;1.90;;;1.80;;
19897;SDS011;10111;50.814;4.572;2022-08-24T18:41:47;2.67;;;2.10;;
19897;SDS011;10111;50.814;4.572;2022-08-24T18:44:15;2.63;;;1.85;;
19897;SDS011;10111;50.814;4.572;2022-08-24T18:46:43;2.33;;;1.80;;
19897;SDS011;10111;50.814;4.572;2022-08-24T18:49:09;2.30;;;2.10;;
19897;SDS011;10111;50.814;4.572;2022-08-24T18:51:35;4.90;;;2.30;;
19897;SDS011;10111;50.814;4.572;2022-08-24T18:54:12;5.47;;;2.42;;
19897;SDS011;10111;50.814;4.572;2022-08-24T18:56:41;5.37;;;2.40;;
19897;SDS011;10111;50.814;4.572;2022-08-24T18:59:08;8.10;;;2.00;;
19897;SDS011;10111;50.814;4.572;2022-08-24T19:01:36;4.93;;;2.43;;